Time;durP1;ratioP1;P1;durP2;ratioP2;P2;SDS_P1;SDS_P2;PMS_P1;PMS_P2;Temp;Humidity;BMP_temperature;BMP_pressure;BME280_temperature;BME280_humidity;BME280_pressure;Samples;Min_cycle;Max_cycle;Signal;HPM_P1;HPM_P2
2023/09/11 05:15:35;;;;;;;;;25.33;24.33;;;;;;;;6281616;22;45262;-70
2023/09/11 05:18:00;;;;;;;;;27.00;25.33;;;;;;;;6308825;22;46313;-71
2023/09/11 05:20:25;;;;;;;;;25.00;22.00;;;;;;;;6308497;22;45316;-71
2023/09/11 05:22:51;;;;;;;;;28.33;23.67;;;;;;;;6308794;22;45382;-71
2023/09/11 05:25:16;;;;;;;;;21.00;20.00;;;;;;;;6279089;22;46979;-71
2023/09/11 05:27:41;;;;;;;;;20.33;20.00;;;;;;;;6308281;22;45428;-72
2023/09/11 05:30:07;;;;;;;;;20.67;18.00;;;;;;;;6279368;22;45485;-71
2023/09/11 05:32:32;;;;;;;;;18.67;17.67;;;;;;;;6308030;22;45222;-72
2023/09/11 05:34:58;;;;;;;;;25.00;24.00;;;;;;;;6307618;22;45238;-73
2023/09/11 05:37:23;;;;;;;;;26.00;22.33;;;;;;;;6280110;22;47602;-73
2023/09/11 05:39:48;;;;;;;;;25.33;22.67;;;;;;;;6308607;22;45203;-73
2023/09/11 05:42:13;;;;;;;;;27.00;26.00;;;;;;;;6301928;22;45346;-72
2023/09/11 05:44:38;;;;;;;;;26.67;23.33;;;;;;;;6303802;22;45211;-73
2023/09/11 05:47:04;;;;;;;;;25.67;24.67;;;;;;;;6307296;22;45534;-71
2023/09/11 05:49:29;;;;;;;;;25.00;22.00;;;;;;;;6306361;22;45366;-71
2023/09/11 05:51:55;;;;;;;;;29.00;23.67;;;;;;;;6307730;22;45283;-71
2023/09/11 05:54:20;;;;;;;;;27.67;24.33;;;;;;;;6305857;22;45397;-72
2023/09/11 05:56:45;;;;;;;;;23.67;23.67;;;;;;;;6307520;22;45234;-72
2023/09/11 05:59:11;;;;;;;;;26.00;22.00;;;;;;;;6277921;22;45608;-72
2023/09/11 06:01:36;;;;;;;;;24.00;23.00;;;;;;;;6278211;22;45271;-71
2023/09/11 06:04:01;;;;;;;;;29.67;24.00;;;;;;;;6307032;22;45438;-72
2023/09/11 06:06:26;;;;;;;;;26.00;23.67;;;;;;;;6306417;22;45278;-71
2023/09/11 06:08:52;;;;;;;;;24.67;21.00;;;;;;;;6307567;22;45557;-72
2023/09/11 06:11:17;;;;;;;;;24.67;22.33;;;;;;;;6308212;22;45408;-71
2023/09/11 06:13:42;;;;;;;;;28.00;26.00;;;;;;;;6307884;22;45243;-72
2023/09/11 06:16:07;;;;;;;;;26.00;24.67;;;;;;;;6307269;22;46382;-72
2023/09/11 06:18:33;;;;;;;;;25.67;22.67;;;;;;;;6279291;22;45188;-72
2023/09/11 06:20:58;;;;;;;;;25.33;23.33;;;;;;;;6308133;22;45281;-72
2023/09/11 06:23:23;;;;;;;;;26.67;26.67;;;;;;;;6307118;22;45302;-72
2023/09/11 06:25:49;;;;;;;;;29.00;27.33;;;;;;;;6308077;22;45311;-71
2023/09/11 06:28:14;;;;;;;;;30.67;28.33;;;;;;;;6279143;22;45727;-71
2023/09/11 06:30:39;;;;;;;;;29.33;25.33;;;;;;;;6307573;22;45310;-71
2023/09/11 06:33:04;;;;;;;;;25.33;23.00;;;;;;;;6307817;22;45501;-72
2023/09/11 06:35:29;;;;;;;;;34.33;28.33;;;;;;;;6307219;22;45381;-72
2023/09/11 06:37:55;;;;;;;;;26.33;23.67;;;;;;;;6307865;22;45666;-71
2023/09/11 06:40:20;;;;;;;;;28.00;25.33;;;;;;;;6307641;22;45306;-72
2023/09/11 06:42:45;;;;;;;;;24.00;23.00;;;;;;;;6280587;22;46273;-71
2023/09/11 06:45:10;;;;;;;;;30.33;26.67;;;;;;;;6277975;22;47637;-71
2023/09/11 06:47:36;;;;;;;;;24.67;24.33;;;;;;;;6308308;22;45217;-71
2023/09/11 06:50:01;;;;;;;;;29.00;23.33;;;;;;;;6280041;22;45289;-71
2023/09/11 06:52:26;;;;;;;;;29.33;27.33;;;;;;;;6304618;22;45245;-71
2023/09/11 06:54:51;;;;;;;;;31.00;29.67;;;;;;;;6307115;22;45407;-71
2023/09/11 06:57:17;;;;;;;;;25.33;21.33;;;;;;;;6307984;22;45261;-72
2023/09/11 06:59:42;;;;;;;;;26.00;25.33;;;;;;;;6308140;22;45299;-70
2023/09/11 07:02:07;;;;;;;;;32.00;28.00;;;;;;;;6308403;22;45282;-71
2023/09/11 07:04:32;;;;;;;;;33.67;29.67;;;;;;;;6307741;22;46100;-71
2023/09/11 07:06:57;;;;;;;;;27.00;25.67;;;;;;;;6309703;22;45246;-71
2023/09/11 07:09:23;;;;;;;;;24.00;23.33;;;;;;;;6309371;22;45243;-70
2023/09/11 07:11:49;;;;;;;;;28.00;27.00;;;;;;;;6280879;22;45859;-70
2023/09/11 07:14:18;;;;;;;;;30.33;23.00;;;;;;;;6308007;22;46626;-71
2023/09/11 07:16:43;;;;;;;;;30.33;27.00;;;;;;;;6309534;22;45184;-70
2023/09/11 07:19:08;;;;;;;;;28.67;26.33;;;;;;;;6309487;22;45251;-71
2023/09/11 07:21:34;;;;;;;;;27.67;24.00;;;;;;;;6280001;22;46516;-71
2023/09/11 07:23:59;;;;;;;;;25.33;24.00;;;;;;;;6280473;22;46952;-70
2023/09/11 07:26:24;;;;;;;;;12.33;10.33;;;;;;;;6309587;22;45276;-71
2023/09/11 07:28:56;;;;;;;;;26.67;22.67;;;;;;;;6309059;22;45551;-71
2023/09/11 07:31:22;;;;;;;;;20.67;18.67;;;;;;;;6309685;22;45227;-71
2023/09/11 07:33:47;;;;;;;;;20.33;18.67;;;;;;;;6308896;22;45952;-71
2023/09/11 07:36:13;;;;;;;;;21.33;18.33;;;;;;;;6309831;22;45317;-71
2023/09/11 07:38:44;;;;;;;;;17.67;14.33;;;;;;;;6309327;22;45229;-72
2023/09/11 07:41:09;;;;;;;;;18.67;17.00;;;;;;;;6309074;22;45140;-71
2023/09/11 07:43:34;;;;;;;;;20.33;18.00;;;;;;;;6308631;22;46585;-71
2023/09/11 07:45:59;;;;;;;;;21.75;21.00;;;;;;;;6279306;22;45236;-71
2023/09/11 07:48:25;;;;;;;;;20.33;19.33;;;;;;;;6309420;22;45215;-71
2023/09/11 07:50:54;;;;;;;;;21.00;18.33;;;;;;;;6308091;22;45835;-71
2023/09/11 07:53:19;;;;;;;;;20.33;18.33;;;;;;;;6308390;22;45306;-71
2023/09/11 07:55:44;;;;;;;;;22.00;20.00;;;;;;;;6309138;22;45365;-71
2023/09/11 07:58:10;;;;;;;;;22.33;21.67;;;;;;;;6281287;22;45319;-71
2023/09/11 08:00:35;;;;;;;;;18.50;16.25;;;;;;;;6308434;22;45542;-72
2023/09/11 08:03:00;;;;;;;;;17.50;17.25;;;;;;;;6309205;22;45365;-71
2023/09/11 08:05:25;;;;;;;;;10.25;8.75;;;;;;;;6308569;22;45228;-71
2023/09/11 08:07:51;;;;;;;;;21.25;20.00;;;;;;;;6309438;22;45278;-71
2023/09/11 08:10:16;;;;;;;;;17.75;17.75;;;;;;;;6308989;22;45231;-71
2023/09/11 08:12:42;;;;;;;;;14.75;14.75;;;;;;;;6309106;22;46451;-71
2023/09/11 08:15:07;;;;;;;;;16.75;15.75;;;;;;;;6308489;22;45230;-71
2023/09/11 08:17:32;;;;;;;;;16.50;16.25;;;;;;;;6308655;22;45164;-71
2023/09/11 08:19:58;;;;;;;;;18.25;17.25;;;;;;;;6308607;22;45290;-71
2023/09/11 08:22:23;;;;;;;;;15.75;15.75;;;;;;;;6308543;22;46392;-71
2023/09/11 08:24:48;;;;;;;;;14.75;14.50;;;;;;;;6308613;22;45364;-71
2023/09/11 08:27:13;;;;;;;;;13.75;13.50;;;;;;;;6309618;22;45269;-71
2023/09/11 08:29:38;;;;;;;;;13.00;12.00;;;;;;;;6308534;22;45358;-71
2023/09/11 08:32:04;;;;;;;;;12.50;12.50;;;;;;;;6309354;22;45313;-71
2023/09/11 08:34:29;;;;;;;;;16.00;13.25;;;;;;;;6309203;22;45250;-71
2023/09/11 08:36:54;;;;;;;;;15.00;15.00;;;;;;;;6309228;22;45579;-71
2023/09/11 08:39:19;;;;;;;;;14.00;14.00;;;;;;;;6279947;22;45754;-71
2023/09/11 08:41:44;;;;;;;;;18.75;14.75;;;;;;;;6309006;22;46587;-71
2023/09/11 08:44:10;;;;;;;;;15.00;14.00;;;;;;;;6308410;22;45172;-71
2023/09/11 08:46:37;;;;;;;;;14.25;13.00;;;;;;;;6309329;22;45211;-71
2023/09/11 08:49:04;;;;;;;;;12.50;12.50;;;;;;;;6309028;22;45469;-71
2023/09/11 08:51:32;;;;;;;;;13.00;12.50;;;;;;;;6308502;22;46727;-71
2023/09/11 08:54:00;;;;;;;;;12.25;11.75;;;;;;;;6308502;22;45278;-71
2023/09/11 08:56:25;;;;;;;;;10.75;9.25;;;;;;;;6309387;22;45212;-71
2023/09/11 08:58:51;;;;;;;;;11.75;8.25;;;;;;;;6308748;22;45210;-71
2023/09/11 09:01:17;;;;;;;;;14.00;12.75;;;;;;;;6308615;22;45176;-71
2023/09/11 09:03:43;;;;;;;;;16.75;12.00;;;;;;;;6308692;22;45204;-73
2023/09/11 09:06:08;;;;;;;;;11.00;11.00;;;;;;;;6280334;22;45287;-71
2023/09/11 09:08:34;;;;;;;;;16.75;14.25;;;;;;;;6280269;22;46914;-70
2023/09/11 09:11:00;;;;;;;;;14.75;11.50;;;;;;;;6308911;22;46228;-70
2023/09/11 09:13:25;;;;;;;;;13.75;10.25;;;;;;;;6308939;22;45267;-70
2023/09/11 09:15:51;;;;;;;;;11.00;11.00;;;;;;;;6279730;22;45395;-70
2023/09/11 09:18:16;;;;;;;;;18.75;12.25;;;;;;;;6309171;22;45221;-70
2023/09/11 09:20:41;;;;;;;;;9.00;8.50;;;;;;;;6309126;22;45473;-70
2023/09/11 09:23:06;;;;;;;;;10.00;10.00;;;;;;;;6308612;22;45346;-70
2023/09/11 09:25:32;;;;;;;;;9.50;9.50;;;;;;;;6279802;22;45267;-70
2023/09/11 09:27:58;;;;;;;;;13.00;12.00;;;;;;;;6308023;22;45239;-70
2023/09/11 09:30:25;;;;;;;;;15.00;12.00;;;;;;;;6306687;22;45247;-70
2023/09/11 09:32:51;;;;;;;;;16.75;13.50;;;;;;;;6309203;22;45226;-70
2023/09/11 09:35:21;;;;;;;;;18.75;16.00;;;;;;;;6308537;22;45199;-70
2023/09/11 09:37:54;;;;;;;;;16.75;14.50;;;;;;;;6308849;22;45244;-71
2023/09/11 09:40:29;;;;;;;;;15.00;12.00;;;;;;;;6279757;22;47654;-72
2023/09/11 09:42:55;;;;;;;;;10.25;9.25;;;;;;;;6309312;22;45184;-72
2023/09/11 09:45:27;;;;;;;;;12.50;12.50;;;;;;;;6279966;22;45291;-72
2023/09/11 09:48:05;;;;;;;;;11.50;11.50;;;;;;;;6309115;22;45297;-74
2023/09/11 09:50:46;;;;;;;;;12.75;12.75;;;;;;;;6308720;22;45348;-74
2023/09/11 09:53:19;;;;;;;;;9.20;9.00;;;;;;;;6308830;22;45255;-73
2023/09/11 09:55:45;;;;;;;;;15.00;13.00;;;;;;;;6309093;22;45188;-73
2023/09/11 09:58:11;;;;;;;;;13.00;12.00;;;;;;;;6308832;22;45112;-74
2023/09/11 10:00:36;;;;;;;;;13.00;13.00;;;;;;;;6308051;22;45449;-73
2023/09/11 10:03:02;;;;;;;;;12.00;12.00;;;;;;;;6281205;22;45224;-73
2023/09/11 10:05:27;;;;;;;;;14.75;11.00;;;;;;;;6308697;22;45078;-74
2023/09/11 10:07:52;;;;;;;;;13.50;13.50;;;;;;;;6308963;22;45527;-74
2023/09/11 10:10:18;;;;;;;;;16.00;12.50;;;;;;;;6308377;22;45508;-73
2023/09/11 10:12:43;;;;;;;;;13.00;11.00;;;;;;;;6280734;22;45479;-74
2023/09/11 10:15:08;;;;;;;;;14.00;13.25;;;;;;;;6279561;22;45388;-73
2023/09/11 10:17:35;;;;;;;;;13.25;13.25;;;;;;;;6308917;22;45511;-73
2023/09/11 10:20:02;;;;;;;;;13.25;10.25;;;;;;;;6280360;22;47677;-74
2023/09/11 10:22:27;;;;;;;;;14.50;11.50;;;;;;;;6280187;22;45269;-73
2023/09/11 10:24:52;;;;;;;;;11.75;9.75;;;;;;;;6308898;22;45501;-73
2023/09/11 10:27:18;;;;;;;;;8.00;7.25;;;;;;;;6308668;22;45328;-73
2023/09/11 10:29:48;;;;;;;;;12.50;12.00;;;;;;;;6309465;22;46477;-74
2023/09/11 10:32:36;;;;;;;;;11.75;10.75;;;;;;;;6280878;22;45308;-73
2023/09/11 10:35:03;;;;;;;;;9.25;7.25;;;;;;;;6309804;22;45256;-74
2023/09/11 10:37:29;;;;;;;;;8.75;6.00;;;;;;;;6309977;22;46530;-74
2023/09/11 10:39:55;;;;;;;;;3.00;1.75;;;;;;;;6281483;22;45590;-74
2023/09/11 10:42:20;;;;;;;;;11.75;11.00;;;;;;;;6281370;22;45251;-73
2023/09/11 10:44:46;;;;;;;;;8.75;8.75;;;;;;;;6309273;22;45342;-72
2023/09/11 10:47:11;;;;;;;;;8.50;7.25;;;;;;;;6282100;22;46060;-71
2023/09/11 10:49:41;;;;;;;;;10.50;9.50;;;;;;;;6308880;22;45781;-72
2023/09/11 10:52:09;;;;;;;;;7.80;7.20;;;;;;;;6309830;22;45251;-73
2023/09/11 10:54:35;;;;;;;;;8.40;7.40;;;;;;;;6280499;22;45237;-72
2023/09/11 10:57:01;;;;;;;;;7.80;6.40;;;;;;;;6309927;22;45509;-74
2023/09/11 10:59:27;;;;;;;;;6.75;6.75;;;;;;;;6309125;22;46363;-73
2023/09/11 11:01:52;;;;;;;;;8.20;7.60;;;;;;;;6310152;22;45105;-74
2023/09/11 11:04:18;;;;;;;;;6.75;6.50;;;;;;;;6281630;22;45536;-74
2023/09/11 11:06:46;;;;;;;;;7.25;7.25;;;;;;;;6310090;22;45714;-74
2023/09/11 11:09:31;;;;;;;;;6.40;6.00;;;;;;;;6309346;22;46183;-73
2023/09/11 11:12:03;;;;;;;;;6.60;6.00;;;;;;;;6309961;22;45285;-74
2023/09/11 11:14:29;;;;;;;;;5.80;4.20;;;;;;;;6308886;22;45391;-73
2023/09/11 11:16:54;;;;;;;;;8.50;6.00;;;;;;;;6309859;22;45286;-73
2023/09/11 11:19:26;;;;;;;;;6.00;5.00;;;;;;;;6309538;22;45334;-73
2023/09/11 11:21:51;;;;;;;;;4.80;4.80;;;;;;;;6309575;22;45385;-74
2023/09/11 11:24:17;;;;;;;;;4.00;4.00;;;;;;;;6307788;22;45189;-73
2023/09/11 11:26:43;;;;;;;;;7.25;6.00;;;;;;;;6309700;22;45190;-73
2023/09/11 11:29:09;;;;;;;;;6.60;5.00;;;;;;;;6280824;22;46969;-74
2023/09/11 11:31:35;;;;;;;;;8.25;6.00;;;;;;;;6280361;22;45244;-74
2023/09/11 11:34:00;;;;;;;;;5.50;5.50;;;;;;;;6309078;22;45279;-74
2023/09/11 11:36:27;;;;;;;;;4.25;4.25;;;;;;;;6309480;22;45306;-73
2023/09/11 11:38:54;;;;;;;;;5.00;4.20;;;;;;;;6309014;22;45378;-73
2023/09/11 11:41:19;;;;;;;;;4.60;3.40;;;;;;;;6280940;22;45576;-74
2023/09/11 11:43:44;;;;;;;;;5.00;5.00;;;;;;;;6309694;22;45137;-74
2023/09/11 11:46:11;;;;;;;;;4.00;3.75;;;;;;;;6309605;22;45246;-74
2023/09/11 11:48:37;;;;;;;;;6.20;6.00;;;;;;;;6309423;22;45539;-74
2023/09/11 11:51:02;;;;;;;;;7.25;6.25;;;;;;;;6281393;22;45379;-73
2023/09/11 11:53:30;;;;;;;;;4.00;3.75;;;;;;;;6309923;22;45585;-74
2023/09/11 11:55:56;;;;;;;;;8.00;4.20;;;;;;;;6309542;22;45729;-73
2023/09/11 11:58:21;;;;;;;;;7.25;6.25;;;;;;;;6309227;22;45340;-74
2023/09/11 12:00:59;;;;;;;;;4.75;4.75;;;;;;;;6280706;22;45257;-72
2023/09/11 12:03:29;;;;;;;;;5.60;4.20;;;;;;;;6309328;22;45164;-73
2023/09/11 12:05:55;;;;;;;;;5.20;5.20;;;;;;;;6281495;22;45349;-72
2023/09/11 12:08:21;;;;;;;;;6.00;6.00;;;;;;;;6309370;22;46460;-74
2023/09/11 12:10:48;;;;;;;;;7.25;6.25;;;;;;;;6309599;22;45212;-74
2023/09/11 12:13:18;;;;;;;;;4.40;3.60;;;;;;;;6278683;22;45258;-74
2023/09/11 12:15:50;;;;;;;;;5.20;5.20;;;;;;;;6308138;22;45338;-73
2023/09/11 12:18:16;;;;;;;;;3.80;3.80;;;;;;;;6309203;22;45305;-72
2023/09/11 12:20:49;;;;;;;;;8.50;5.00;;;;;;;;6308485;22;45298;-71
2023/09/11 12:23:15;;;;;;;;;6.00;5.00;;;;;;;;6309514;22;45232;-73
2023/09/11 12:25:40;;;;;;;;;6.40;5.00;;;;;;;;6279934;22;45933;-73
2023/09/11 12:28:06;;;;;;;;;8.00;6.25;;;;;;;;6280702;22;47019;-72
2023/09/11 12:30:31;;;;;;;;;6.75;6.75;;;;;;;;6280487;22;45177;-72
2023/09/11 12:32:57;;;;;;;;;4.00;4.00;;;;;;;;6309736;22;45314;-71
2023/09/11 12:35:32;;;;;;;;;4.00;4.00;;;;;;;;6280002;22;45634;-73
2023/09/11 12:37:57;;;;;;;;;5.20;5.20;;;;;;;;6309103;22;45262;-73
2023/09/11 12:40:23;;;;;;;;;4.25;4.25;;;;;;;;6281003;22;45228;-74
2023/09/11 12:42:48;;;;;;;;;5.00;4.25;;;;;;;;6309802;22;45394;-74
2023/09/11 12:45:13;;;;;;;;;7.75;4.75;;;;;;;;6308067;22;45335;-74
2023/09/11 12:47:38;;;;;;;;;4.25;2.75;;;;;;;;6309291;22;45317;-74
2023/09/11 12:50:05;;;;;;;;;6.25;3.50;;;;;;;;6308442;22;45309;-74
2023/09/11 12:52:30;;;;;;;;;5.25;5.00;;;;;;;;6309274;22;45240;-75
2023/09/11 12:54:55;;;;;;;;;4.00;4.00;;;;;;;;6309028;22;45258;-75
2023/09/11 12:57:21;;;;;;;;;4.25;3.25;;;;;;;;6280517;22;45547;-74
2023/09/11 12:59:46;;;;;;;;;5.75;4.50;;;;;;;;6280080;22;45268;-74
2023/09/11 13:02:11;;;;;;;;;4.50;3.50;;;;;;;;6309599;22;45244;-74
2023/09/11 13:04:36;;;;;;;;;7.50;6.25;;;;;;;;6281165;22;45478;-74
2023/09/11 13:07:01;;;;;;;;;5.00;5.00;;;;;;;;6309261;22;45228;-74
2023/09/11 13:09:27;;;;;;;;;7.00;5.00;;;;;;;;6281271;22;45575;-75
2023/09/11 13:11:52;;;;;;;;;5.25;4.75;;;;;;;;6309409;22;45184;-74
2023/09/11 13:14:17;;;;;;;;;4.50;4.00;;;;;;;;6308278;22;45896;-74
2023/09/11 13:16:43;;;;;;;;;6.00;5.00;;;;;;;;6309251;22;45258;-74
2023/09/11 13:19:08;;;;;;;;;4.25;4.25;;;;;;;;6280604;22;45247;-74
2023/09/11 13:21:34;;;;;;;;;6.50;4.75;;;;;;;;6309209;22;45295;-74
2023/09/11 13:23:59;;;;;;;;;2.75;2.75;;;;;;;;6308811;22;45454;-74
2023/09/11 13:26:24;;;;;;;;;4.75;4.75;;;;;;;;6280893;22;47408;-75
2023/09/11 13:28:50;;;;;;;;;5.00;4.50;;;;;;;;6308778;22;45224;-74
2023/09/11 13:31:15;;;;;;;;;5.50;4.50;;;;;;;;6309601;22;45199;-74
2023/09/11 13:33:42;;;;;;;;;3.75;3.75;;;;;;;;6281130;22;47027;-75
2023/09/11 13:36:07;;;;;;;;;3.00;3.00;;;;;;;;6309180;22;45502;-75
2023/09/11 13:38:32;;;;;;;;;2.00;2.00;;;;;;;;6308916;22;45174;-74
2023/09/11 13:40:58;;;;;;;;;2.75;2.75;;;;;;;;6309183;22;45243;-74
2023/09/11 13:43:23;;;;;;;;;3.50;3.25;;;;;;;;6308596;22;45206;-74
2023/09/11 13:45:48;;;;;;;;;3.50;3.25;;;;;;;;6309044;22;46351;-74
2023/09/11 13:48:13;;;;;;;;;3.00;3.00;;;;;;;;6309296;22;45310;-75
2023/09/11 13:50:38;;;;;;;;;3.25;3.25;;;;;;;;6309221;22;45266;-75
2023/09/11 13:53:04;;;;;;;;;3.00;3.00;;;;;;;;6309193;22;45431;-74
2023/09/11 13:55:29;;;;;;;;;3.25;3.25;;;;;;;;6308301;22;45635;-75
2023/09/11 13:57:54;;;;;;;;;4.25;3.00;;;;;;;;6309219;22;45271;-74
2023/09/11 14:00:19;;;;;;;;;1.75;1.75;;;;;;;;6279846;22;45353;-76
2023/09/11 14:02:45;;;;;;;;;3.00;3.00;;;;;;;;6310669;22;45333;-75
2023/09/11 14:05:10;;;;;;;;;2.75;2.75;;;;;;;;6283298;22;46744;-76
2023/09/11 14:07:35;;;;;;;;;3.00;3.00;;;;;;;;6312309;22;45247;-74
2023/09/11 14:10:01;;;;;;;;;4.00;3.50;;;;;;;;6312261;22;45242;-74
2023/09/11 14:12:26;;;;;;;;;5.50;4.00;;;;;;;;6312327;22;45459;-75
2023/09/11 14:14:51;;;;;;;;;4.00;4.00;;;;;;;;6311084;22;45471;-74
2023/09/11 14:17:16;;;;;;;;;5.00;3.00;;;;;;;;6312286;22;45292;-75
2023/09/11 14:19:42;;;;;;;;;3.75;3.75;;;;;;;;6312373;22;45364;-75
2023/09/11 14:22:07;;;;;;;;;2.75;2.75;;;;;;;;6311973;22;45425;-75
2023/09/11 14:24:34;;;;;;;;;3.50;3.50;;;;;;;;6312195;22;45199;-75
2023/09/11 14:26:59;;;;;;;;;3.20;3.20;;;;;;;;6312293;22;45211;-74
2023/09/11 14:29:24;;;;;;;;;3.00;3.00;;;;;;;;6311921;22;45219;-74
2023/09/11 14:31:49;;;;;;;;;3.75;3.00;;;;;;;;6284060;22;46080;-74
2023/09/11 14:34:15;;;;;;;;;4.00;3.75;;;;;;;;6311876;22;45389;-75
2023/09/11 14:36:41;;;;;;;;;4.60;3.60;;;;;;;;6312065;22;45194;-75
2023/09/11 14:39:06;;;;;;;;;4.75;4.75;;;;;;;;6312210;22;45511;-75
2023/09/11 14:41:31;;;;;;;;;3.00;3.00;;;;;;;;6283639;22;46360;-75
2023/09/11 14:43:56;;;;;;;;;6.25;3.75;;;;;;;;6311342;22;45310;-75
2023/09/11 14:46:21;;;;;;;;;3.25;3.25;;;;;;;;6311789;22;45231;-75
2023/09/11 14:48:53;;;;;;;;;3.00;3.00;;;;;;;;6283292;22;45204;-75
2023/09/11 14:51:18;;;;;;;;;4.20;3.40;;;;;;;;6312167;22;45246;-74
2023/09/11 14:53:43;;;;;;;;;4.50;4.50;;;;;;;;6311875;22;46176;-74
2023/09/11 14:56:08;;;;;;;;;5.00;3.50;;;;;;;;6311976;22;45303;-75
2023/09/11 14:58:33;;;;;;;;;2.75;2.75;;;;;;;;6282861;22;45827;-75
2023/09/11 15:00:59;;;;;;;;;5.00;5.00;;;;;;;;6311598;22;45319;-75
2023/09/11 15:03:24;;;;;;;;;3.25;2.50;;;;;;;;6311764;22;45198;-75
2023/09/11 15:05:49;;;;;;;;;6.00;5.00;;;;;;;;6311981;22;45247;-74
2023/09/11 15:08:14;;;;;;;;;4.75;4.50;;;;;;;;6312051;22;45413;-75
2023/09/11 15:10:42;;;;;;;;;3.50;3.25;;;;;;;;6283560;22;46822;-75
2023/09/11 15:13:08;;;;;;;;;3.00;3.00;;;;;;;;6311415;22;45266;-74
2023/09/11 15:15:33;;;;;;;;;2.00;2.00;;;;;;;;6308757;22;45188;-75
2023/09/11 15:17:59;;;;;;;;;8.00;4.00;;;;;;;;6309589;22;45345;-75
2023/09/11 15:20:24;;;;;;;;;2.75;2.75;;;;;;;;6281747;22;45511;-75
2023/09/11 15:22:50;;;;;;;;;2.25;2.25;;;;;;;;6309528;22;45264;-75
2023/09/11 15:25:15;;;;;;;;;4.00;2.00;;;;;;;;6309671;22;45322;-74
2023/09/11 15:27:40;;;;;;;;;3.75;3.75;;;;;;;;6310341;22;45242;-74
2023/09/11 15:30:06;;;;;;;;;5.25;5.00;;;;;;;;6309573;22;45369;-74
2023/09/11 15:32:31;;;;;;;;;3.25;3.00;;;;;;;;6281450;22;46766;-75
2023/09/11 15:34:56;;;;;;;;;5.75;3.75;;;;;;;;6309640;22;45188;-74
2023/09/11 15:37:22;;;;;;;;;3.75;3.75;;;;;;;;6309958;22;45358;-75
2023/09/11 15:39:48;;;;;;;;;2.25;2.25;;;;;;;;6309701;22;45254;-75
2023/09/11 15:42:14;;;;;;;;;4.00;4.00;;;;;;;;6309680;22;46223;-74
2023/09/11 15:44:39;;;;;;;;;4.00;4.00;;;;;;;;6309332;22;45574;-75
2023/09/11 15:47:04;;;;;;;;;6.00;4.00;;;;;;;;6309909;22;45251;-75
2023/09/11 15:49:29;;;;;;;;;6.75;6.00;;;;;;;;6309260;22;45395;-75
2023/09/11 15:51:54;;;;;;;;;9.50;7.00;;;;;;;;6309599;22;45275;-75
2023/09/11 15:54:22;;;;;;;;;8.75;7.75;;;;;;;;6281318;22;45650;-75
2023/09/11 15:56:47;;;;;;;;;10.20;6.80;;;;;;;;6310022;22;45157;-74
2023/09/11 15:59:12;;;;;;;;;6.50;6.50;;;;;;;;6309034;22;45226;-74
2023/09/11 16:01:37;;;;;;;;;5.00;4.50;;;;;;;;6309279;22;46384;-75
2023/09/11 16:04:03;;;;;;;;;6.75;6.75;;;;;;;;6309461;22;45152;-75
2023/09/11 16:06:28;;;;;;;;;7.00;6.00;;;;;;;;6309703;22;45086;-74
2023/09/11 16:08:53;;;;;;;;;7.25;6.25;;;;;;;;6309351;22;45619;-75
2023/09/11 16:11:19;;;;;;;;;5.00;4.00;;;;;;;;6280986;22;47830;-75
2023/09/11 16:13:44;;;;;;;;;7.25;6.00;;;;;;;;6308734;22;45191;-73
2023/09/11 16:16:09;;;;;;;;;7.25;6.25;;;;;;;;6308637;22;45347;-75
2023/09/11 16:18:34;;;;;;;;;8.00;7.50;;;;;;;;6304209;22;45382;-75
2023/09/11 16:20:59;;;;;;;;;6.25;5.75;;;;;;;;6307713;22;45416;-75
2023/09/11 16:23:25;;;;;;;;;6.75;6.75;;;;;;;;6306587;22;45271;-75
2023/09/11 16:25:51;;;;;;;;;7.50;5.75;;;;;;;;6307385;22;45212;-75
2023/09/11 16:28:16;;;;;;;;;3.00;3.00;;;;;;;;6280577;22;45768;-76
2023/09/11 16:30:41;;;;;;;;;8.25;5.00;;;;;;;;6308789;22;45560;-75
2023/09/11 16:33:07;;;;;;;;;5.50;5.50;;;;;;;;6309184;22;45305;-74
2023/09/11 16:35:32;;;;;;;;;4.00;4.00;;;;;;;;6280976;22;45221;-74
2023/09/11 16:37:58;;;;;;;;;4.50;4.50;;;;;;;;6280548;22;45499;-74
2023/09/11 16:40:23;;;;;;;;;5.50;4.50;;;;;;;;6309111;22;46315;-74
2023/09/11 16:42:48;;;;;;;;;6.75;6.75;;;;;;;;6309522;22;45188;-74
2023/09/11 16:45:16;;;;;;;;;7.00;7.00;;;;;;;;6306403;22;45377;-74
2023/09/11 16:47:42;;;;;;;;;6.60;6.60;;;;;;;;6308842;22;45385;-74
2023/09/11 16:50:08;;;;;;;;;6.25;6.25;;;;;;;;6280882;22;46224;-74
2023/09/11 16:52:34;;;;;;;;;5.60;5.60;;;;;;;;6280497;22;45248;-75
2023/09/11 16:54:59;;;;;;;;;10.00;5.25;;;;;;;;6309392;22;45396;-75
2023/09/11 16:57:24;;;;;;;;;6.50;5.50;;;;;;;;6280738;22;45766;-74
2023/09/11 16:59:49;;;;;;;;;5.75;4.75;;;;;;;;6280145;22;46646;-74
2023/09/11 17:02:15;;;;;;;;;5.00;4.50;;;;;;;;6309130;22;45188;-73
2023/09/11 17:04:40;;;;;;;;;5.75;5.75;;;;;;;;6308765;22;45262;-74
2023/09/11 17:07:05;;;;;;;;;5.00;5.00;;;;;;;;6281278;22;46107;-73
2023/09/11 17:09:30;;;;;;;;;4.25;4.00;;;;;;;;6308840;22;45514;-73
2023/09/11 17:11:55;;;;;;;;;5.25;5.00;;;;;;;;6281585;22;45289;-73
2023/09/11 17:14:21;;;;;;;;;7.00;6.00;;;;;;;;6308210;22;45236;-72
2023/09/11 17:16:46;;;;;;;;;6.00;6.00;;;;;;;;6309437;22;45251;-72
2023/09/11 17:19:11;;;;;;;;;5.25;5.25;;;;;;;;6280103;22;46800;-72
2023/09/11 17:21:36;;;;;;;;;4.75;4.75;;;;;;;;6309309;22;45448;-71
2023/09/11 17:24:02;;;;;;;;;5.50;5.50;;;;;;;;6308319;22;45267;-71
2023/09/11 17:26:27;;;;;;;;;5.50;4.75;;;;;;;;6280337;22;46388;-71
2023/09/11 17:28:53;;;;;;;;;5.75;5.75;;;;;;;;6308447;22;45510;-72
2023/09/11 17:31:18;;;;;;;;;5.00;5.00;;;;;;;;6307863;22;45246;-71
2023/09/11 17:33:44;;;;;;;;;8.50;6.25;;;;;;;;6309253;22;45459;-71
2023/09/11 17:36:09;;;;;;;;;6.25;5.00;;;;;;;;6308963;22;45564;-71
2023/09/11 17:38:34;;;;;;;;;6.75;6.50;;;;;;;;6308527;22;45366;-71
2023/09/11 17:40:59;;;;;;;;;8.25;6.25;;;;;;;;6308557;22;45365;-71
2023/09/11 17:43:24;;;;;;;;;8.00;6.50;;;;;;;;6309055;22;45208;-71
2023/09/11 17:45:49;;;;;;;;;5.50;5.50;;;;;;;;6308830;22;45208;-71
2023/09/11 17:48:15;;;;;;;;;5.50;5.50;;;;;;;;6308912;22;46438;-71
2023/09/11 17:50:40;;;;;;;;;8.25;6.50;;;;;;;;6308794;22;45292;-72
2023/09/11 17:53:05;;;;;;;;;6.00;6.00;;;;;;;;6309643;22;45256;-71
2023/09/11 17:55:30;;;;;;;;;6.50;6.50;;;;;;;;6280184;22;46018;-72
2023/09/11 17:57:56;;;;;;;;;6.00;6.00;;;;;;;;6309017;22;46365;-71
2023/09/11 18:00:25;;;;;;;;;7.50;6.25;;;;;;;;6308477;22;45145;-72
2023/09/11 18:02:50;;;;;;;;;7.50;7.50;;;;;;;;6280719;22;45273;-71
2023/09/11 18:05:15;;;;;;;;;8.00;5.50;;;;;;;;6308784;22;45404;-72
2023/09/11 18:07:40;;;;;;;;;6.00;6.00;;;;;;;;6308303;22;46138;-73
2023/09/11 18:10:06;;;;;;;;;5.50;5.50;;;;;;;;6308648;22;45212;-72
2023/09/11 18:12:31;;;;;;;;;7.50;7.50;;;;;;;;6280065;22;45200;-73
2023/09/11 18:14:57;;;;;;;;;6.50;6.50;;;;;;;;6307504;22;45264;-72
2023/09/11 18:17:22;;;;;;;;;8.50;7.00;;;;;;;;6308682;22;45307;-72
2023/09/11 18:19:48;;;;;;;;;6.75;6.75;;;;;;;;6308772;22;45285;-73
2023/09/11 18:22:13;;;;;;;;;10.25;9.25;;;;;;;;6308004;22;45295;-72
2023/09/11 18:24:38;;;;;;;;;4.50;4.50;;;;;;;;6308599;22;45213;-72
2023/09/11 18:27:03;;;;;;;;;5.00;5.00;;;;;;;;6308832;22;45657;-72
2023/09/11 18:29:29;;;;;;;;;6.75;6.50;;;;;;;;6308016;22;45299;-72
2023/09/11 18:31:54;;;;;;;;;8.75;8.00;;;;;;;;6308726;22;45165;-72
2023/09/11 18:34:19;;;;;;;;;9.50;9.50;;;;;;;;6308183;22;45249;-72
2023/09/11 18:36:45;;;;;;;;;7.75;6.75;;;;;;;;6308333;22;45511;-71
2023/09/11 18:39:10;;;;;;;;;9.00;7.50;;;;;;;;6308030;22;45132;-71
2023/09/11 18:41:35;;;;;;;;;8.25;7.00;;;;;;;;6308516;22;45437;-72
2023/09/11 18:44:01;;;;;;;;;8.25;8.25;;;;;;;;6278492;22;46294;-73
2023/09/11 18:46:26;;;;;;;;;10.00;8.00;;;;;;;;6308242;22;46465;-71
2023/09/11 18:48:51;;;;;;;;;7.25;7.25;;;;;;;;6280748;22;45245;-72
2023/09/11 18:51:17;;;;;;;;;9.25;7.00;;;;;;;;6310153;22;45180;-73
2023/09/11 18:53:42;;;;;;;;;8.50;8.50;;;;;;;;6281614;22;46020;-73
2023/09/11 18:56:07;;;;;;;;;11.50;8.50;;;;;;;;6309846;22;46334;-73
2023/09/11 18:58:32;;;;;;;;;8.25;8.00;;;;;;;;6309764;22;45195;-73
2023/09/11 19:00:58;;;;;;;;;7.75;7.75;;;;;;;;6309746;22;45168;-73
2023/09/11 19:03:23;;;;;;;;;10.50;8.00;;;;;;;;6309859;22;45102;-73
2023/09/11 19:05:53;;;;;;;;;6.00;4.75;;;;;;;;6309514;22;46267;-73
2023/09/11 19:08:19;;;;;;;;;8.75;7.25;;;;;;;;6308182;22;45310;-73
2023/09/11 19:10:45;;;;;;;;;8.25;8.25;;;;;;;;6309555;22;45797;-73
2023/09/11 19:13:10;;;;;;;;;7.25;6.00;;;;;;;;6281373;22;46069;-73
2023/09/11 19:15:35;;;;;;;;;6.00;6.00;;;;;;;;6308729;22;45360;-73
2023/09/11 19:18:00;;;;;;;;;10.00;8.50;;;;;;;;6309988;22;45270;-73
2023/09/11 19:20:26;;;;;;;;;6.50;6.50;;;;;;;;6309463;22;45315;-72
2023/09/11 19:22:51;;;;;;;;;7.50;7.50;;;;;;;;6309382;22;45209;-73
2023/09/11 19:25:17;;;;;;;;;6.75;6.75;;;;;;;;6280767;22;46543;-72
2023/09/11 19:27:42;;;;;;;;;6.50;6.50;;;;;;;;6309647;22;45180;-72
2023/09/11 19:30:08;;;;;;;;;8.00;7.75;;;;;;;;6309033;22;45223;-73
2023/09/11 19:32:35;;;;;;;;;9.25;6.50;;;;;;;;6309490;22;45413;-73
2023/09/11 19:35:00;;;;;;;;;9.75;8.00;;;;;;;;6308168;22;46233;-72
2023/09/11 19:37:26;;;;;;;;;8.25;8.25;;;;;;;;6281938;22;45277;-72
2023/09/11 19:39:51;;;;;;;;;6.00;6.00;;;;;;;;6309287;22;45405;-72